createdAt,value
2023-03-16T00:01:23.958Z,48.60
2023-03-16T00:04:26.654Z,48.96
2023-03-16T00:07:29.311Z,49.12
2023-03-16T00:10:31.972Z,48.69
2023-03-16T00:13:34.612Z,49.30
2023-03-16T00:16:37.165Z,49.10
2023-03-16T00:19:39.713Z,49.03
2023-03-16T00:22:42.284Z,49.41
2023-03-16T00:25:44.822Z,49.65
2023-03-16T00:28:47.397Z,51.05
2023-03-16T00:31:50.187Z,51.81
2023-03-16T00:34:54.026Z,52.86
2023-03-16T00:37:57.467Z,54.03
2023-03-16T00:41:04.105Z,54.48
2023-03-16T00:44:06.680Z,54.87
2023-03-16T00:47:14.596Z,55.32
2023-03-16T00:50:17.323Z,55.16
2023-03-16T00:53:20.004Z,55.32
2023-03-16T00:56:22.694Z,54.93
2023-03-16T00:59:26.355Z,55.41
2023-03-16T01:02:28.898Z,55.49
2023-03-16T01:05:33.535Z,54.67
2023-03-16T01:08:40.509Z,53.96
2023-03-16T01:11:43.327Z,54.78
2023-03-16T01:14:47.450Z,54.95
2023-03-16T01:17:50.004Z,55.87
2023-03-16T01:20:53.521Z,55.99
2023-03-16T01:23:56.786Z,55.79
2023-03-16T01:26:59.415Z,56.52
2023-03-16T01:30:02.559Z,56.44
2023-03-16T01:33:06.298Z,57.17
2023-03-16T01:36:11.836Z,57.66
2023-03-16T01:39:26.564Z,58.41
2023-03-16T01:42:29.800Z,58.63
2023-03-16T01:46:00.333Z,58.18
2023-03-16T01:49:13.521Z,57.65
2023-03-16T01:52:22.762Z,57.89
2023-03-16T01:55:25.219Z,58.57
2023-03-16T01:58:30.334Z,58.92
2023-03-16T02:01:33.473Z,59.37
2023-03-16T02:04:39.623Z,59.90
2023-03-16T02:07:49.465Z,59.95
2023-03-16T02:10:54.832Z,60.31
2023-03-16T02:14:05.302Z,60.63
2023-03-16T02:17:07.980Z,60.86
2023-03-16T02:20:36.292Z,61.18
2023-03-16T02:23:38.971Z,62.16
2023-03-16T02:26:48.756Z,62.71
2023-03-16T02:30:06.542Z,63.30
2023-03-16T02:33:19.800Z,65.38
2023-03-16T02:36:22.622Z,64.76
2023-03-16T02:39:25.676Z,65.79
2023-03-16T02:42:29.260Z,66.09
2023-03-16T02:45:44.723Z,67.31
2023-03-16T02:49:03.014Z,67.59
2023-03-16T02:52:07.527Z,67.97
2023-03-16T02:55:10.516Z,68.20
2023-03-16T02:58:14.925Z,69.05
2023-03-16T03:01:17.585Z,69.38
2023-03-16T03:04:23.517Z,69.43
2023-03-16T03:07:31.878Z,69.97
2023-03-16T03:10:38.860Z,71.04
2023-03-16T03:13:43.779Z,70.79
2023-03-16T03:16:52.266Z,70.60
2023-03-16T03:19:54.833Z,70.90
2023-03-16T03:22:57.683Z,70.56
2023-03-16T03:26:00.889Z,71.30
2023-03-16T03:29:04.777Z,71.38
2023-03-16T03:32:09.419Z,71.56
2023-03-16T03:35:14.237Z,72.20
2023-03-16T03:38:16.939Z,72.61
2023-03-16T03:41:22.537Z,72.96
2023-03-16T03:44:27.033Z,72.50
2023-03-16T03:47:30.987Z,72.20
2023-03-16T03:50:35.188Z,72.85
2023-03-16T03:53:57.158Z,72.61
2023-03-16T03:57:25.679Z,72.75
2023-03-16T04:00:28.446Z,72.72
2023-03-16T04:03:31.422Z,73.29
2023-03-16T04:06:34.024Z,73.21
2023-03-16T04:09:36.885Z,73.55
2023-03-16T04:12:40.189Z,73.94
2023-03-16T04:15:47.048Z,74.25
2023-03-16T04:18:57.255Z,74.19
2023-03-16T04:22:00.058Z,74.53
2023-03-16T04:25:05.297Z,75.12
2023-03-16T04:28:11.693Z,75.06
2023-03-16T04:31:15.954Z,74.83
2023-03-16T04:34:25.176Z,74.90
2023-03-16T04:37:31.511Z,75.20
2023-03-16T04:40:34.091Z,76.46
2023-03-16T04:43:46.718Z,76.26
2023-03-16T04:46:54.865Z,75.94
2023-03-16T04:50:01.450Z,75.42
2023-03-16T04:53:04.745Z,75.19
2023-03-16T04:56:08.696Z,74.81
2023-03-16T04:59:12.408Z,74.33
2023-03-16T05:02:33.064Z,74.76
2023-03-16T05:05:38.573Z,74.64
2023-03-16T05:08:41.311Z,74.83
2023-03-16T05:11:44.111Z,74.60
2023-03-16T05:14:48.301Z,74.66
2023-03-16T05:18:09.275Z,75.55
2023-03-16T05:21:12.870Z,74.55
2023-03-16T05:24:37.257Z,74.04
2023-03-16T05:27:41.808Z,74.66
2023-03-16T05:30:45.998Z,75.14
2023-03-16T05:33:54.248Z,75.32
2023-03-16T05:36:58.481Z,74.67
2023-03-16T05:40:01.647Z,74.96
2023-03-16T05:43:04.920Z,74.95
2023-03-16T05:46:11.790Z,75.12
2023-03-16T05:49:15.636Z,75.64
2023-03-16T05:52:18.302Z,75.06
2023-03-16T05:55:20.954Z,74.92
2023-03-16T05:58:33.990Z,74.68
2023-03-16T06:01:40.220Z,73.91
2023-03-16T06:04:43.655Z,74.22
2023-03-16T06:07:46.398Z,73.55
2023-03-16T06:10:51.072Z,73.07
2023-03-16T06:13:57.951Z,72.39
2023-03-16T06:17:00.913Z,70.85
2023-03-16T06:20:11.417Z,69.28
2023-03-16T06:23:16.244Z,69.27
2023-03-16T06:26:19.447Z,65.24
2023-03-16T06:29:23.629Z,61.90
2023-03-16T06:32:26.410Z,60.72
2023-03-16T06:35:30.241Z,58.13
2023-03-16T06:38:47.893Z,56.11
2023-03-16T06:42:23.879Z,55.01
2023-03-16T06:45:27.413Z,51.45
2023-03-16T06:48:31.871Z,51.12
2023-03-16T06:51:35.340Z,49.72
2023-03-16T06:54:38.426Z,49.81
2023-03-16T06:57:42.887Z,49.84
2023-03-16T07:00:49.080Z,48.43
2023-03-16T07:03:55.016Z,47.28
2023-03-16T07:07:03.896Z,47.36
2023-03-16T07:10:09.404Z,46.57
2023-03-16T07:13:12.993Z,47.21
2023-03-16T07:16:16.939Z,46.94
2023-03-16T07:19:21.186Z,46.39
2023-03-16T07:22:24.898Z,46.30
2023-03-16T07:25:28.767Z,46.95
2023-03-16T07:28:32.289Z,45.67
2023-03-16T07:31:37.026Z,45.38
2023-03-16T07:34:45.709Z,44.63
2023-03-16T07:37:49.446Z,44.48
2023-03-16T07:40:52.297Z,44.41
2023-03-16T07:43:58.507Z,44.25
2023-03-16T07:47:01.718Z,43.46
2023-03-16T07:50:06.885Z,43.67
2023-03-16T07:53:10.405Z,43.63
2023-03-16T07:56:15.783Z,43.89
2023-03-16T07:59:21.515Z,43.72
2023-03-16T08:02:25.805Z,43.11
2023-03-16T08:05:34.616Z,42.74
2023-03-16T08:08:43.250Z,43.17
2023-03-16T08:11:52.806Z,43.37
2023-03-16T08:14:55.393Z,43.18
2023-03-16T08:18:02.649Z,42.45
2023-03-16T08:21:06.800Z,42.82
2023-03-16T08:24:09.535Z,42.67
2023-03-16T08:27:13.574Z,42.77
2023-03-16T08:30:20.900Z,42.88
2023-03-16T08:33:31.708Z,41.33
2023-03-16T08:36:35.038Z,41.31
2023-03-16T08:39:42.266Z,41.71
2023-03-16T08:42:50.138Z,41.42
2023-03-16T08:45:56.033Z,40.98
2023-03-16T08:49:03.060Z,40.51
2023-03-16T08:52:10.485Z,41.01
2023-03-16T08:55:13.387Z,39.96
2023-03-16T08:58:16.028Z,40.45
2023-03-16T09:01:19.809Z,40.15
2023-03-16T09:04:25.030Z,41.06
2023-03-16T09:07:29.253Z,40.13
2023-03-16T09:10:33.187Z,39.96
2023-03-16T09:13:36.899Z,38.14
2023-03-16T09:16:39.637Z,38.87
2023-03-16T09:19:51.942Z,37.89
2023-03-16T09:22:57.113Z,36.65
2023-03-16T09:26:03.101Z,38.11
2023-03-16T09:29:07.048Z,37.76
2023-03-16T09:32:10.512Z,38.99
2023-03-16T09:41:27.291Z,35.29
2023-03-16T09:50:48.245Z,32.11
2023-03-16T09:53:58.553Z,33.22
2023-03-16T09:57:02.059Z,32.37
2023-03-16T10:00:16.181Z,33.23
2023-03-16T10:03:28.715Z,32.70
2023-03-16T10:06:33.170Z,33.97
2023-03-16T10:09:57.583Z,33.98
2023-03-16T10:13:01.636Z,34.44
2023-03-16T10:16:11.192Z,32.97
2023-03-16T10:19:31.055Z,33.39
2023-03-16T10:22:37.497Z,32.73
2023-03-16T10:25:51.223Z,32.13
2023-03-16T10:28:55.050Z,32.13
2023-03-16T10:32:06.943Z,31.38
2023-03-16T10:35:38.524Z,31.49
2023-03-16T10:38:43.221Z,31.56
2023-03-16T10:41:58.234Z,31.33
2023-03-16T10:45:03.261Z,31.07
2023-03-16T10:48:14.642Z,30.82
2023-03-16T10:51:20.573Z,31.02
2023-03-16T10:54:40.109Z,30.06
2023-03-16T10:57:48.740Z,30.01
2023-03-16T11:00:55.566Z,29.45
2023-03-16T11:03:59.377Z,29.65
2023-03-16T11:07:01.880Z,29.01
2023-03-16T11:10:25.328Z,28.79
2023-03-16T11:13:38.032Z,29.91
2023-03-16T11:16:53.751Z,29.00
2023-03-16T11:20:18.536Z,26.51
2023-03-16T11:23:29.756Z,24.98
2023-03-16T11:26:39.870Z,24.15
2023-03-16T11:30:07.687Z,24.59
2023-03-16T11:33:14.439Z,22.97
2023-03-16T11:36:30.185Z,23.42
2023-03-16T11:39:42.786Z,23.55
2023-03-16T11:43:04.216Z,23.48
2023-03-16T11:46:23.110Z,23.88
2023-03-16T11:49:29.787Z,24.94
2023-03-16T11:52:51.180Z,25.53
2023-03-16T11:56:19.095Z,24.23
2023-03-16T11:59:42.396Z,22.67
2023-03-16T12:03:28.938Z,22.37
2023-03-16T12:06:40.142Z,22.42
2023-03-16T12:10:19.158Z,23.22
2023-03-16T12:14:00.828Z,24.93
2023-03-16T12:17:08.812Z,23.73
2023-03-16T12:20:21.984Z,22.98
2023-03-16T12:23:50.930Z,22.66
2023-03-16T12:26:55.592Z,21.75
2023-03-16T12:30:30.707Z,21.04
2023-03-16T12:34:19.299Z,20.91
2023-03-16T12:37:41.558Z,20.18
2023-03-16T12:41:08.308Z,20.33
2023-03-16T12:44:34.543Z,20.19
2023-03-16T12:48:10.139Z,19.49
2023-03-16T12:51:13.036Z,18.66
2023-03-16T12:54:24.081Z,17.45
2023-03-16T12:57:27.576Z,17.81
2023-03-16T13:00:57.895Z,17.96
2023-03-16T13:04:31.105Z,17.49
2023-03-16T13:07:35.350Z,17.83
2023-03-16T13:10:40.572Z,16.97
2023-03-16T13:13:53.174Z,16.16
2023-03-16T13:17:22.502Z,16.06
2023-03-16T13:20:32.268Z,15.91
2023-03-16T13:24:00.322Z,15.81
2023-03-16T13:27:15.679Z,16.51
2023-03-16T13:30:25.700Z,15.64
2023-03-16T13:33:33.123Z,14.56
2023-03-16T13:36:45.470Z,14.83
2023-03-16T13:39:59.994Z,15.21
2023-03-16T13:43:02.943Z,14.83
2023-03-16T13:46:19.946Z,14.15
2023-03-16T13:49:22.996Z,15.10
2023-03-16T13:52:31.660Z,15.14
2023-03-16T13:55:38.568Z,15.01
2023-03-16T13:58:45.567Z,14.97
2023-03-16T14:01:50.185Z,15.24
2023-03-16T14:04:56.306Z,14.46
2023-03-16T14:08:01.077Z,15.26
2023-03-16T14:11:04.082Z,15.26
2023-03-16T14:14:16.838Z,14.89
2023-03-16T14:17:21.742Z,13.89
2023-03-16T14:20:26.100Z,13.80
2023-03-16T14:23:36.459Z,14.02
2023-03-16T14:26:41.821Z,12.96
2023-03-16T14:29:47.580Z,12.26
2023-03-16T14:32:59.966Z,13.11
2023-03-16T14:36:16.503Z,13.91
2023-03-16T14:39:27.857Z,13.99
2023-03-16T14:42:31.635Z,13.66
2023-03-16T14:45:37.097Z,13.91
2023-03-16T14:48:41.256Z,13.92
2023-03-16T14:51:45.942Z,15.16
2023-03-16T14:54:49.033Z,14.51
2023-03-16T14:57:51.866Z,13.82
2023-03-16T15:00:55.308Z,13.21
2023-03-16T15:03:59.236Z,13.73
2023-03-16T15:07:07.168Z,14.08
2023-03-16T15:10:20.364Z,13.82
2023-03-16T15:13:41.912Z,12.89
2023-03-16T15:16:44.468Z,13.38
2023-03-16T15:19:47.065Z,13.62
2023-03-16T15:22:51.156Z,13.24
2023-03-16T15:25:58.511Z,13.44
2023-03-16T15:29:01.228Z,15.14
2023-03-16T15:32:04.054Z,15.26
2023-03-16T15:35:07.454Z,14.69
2023-03-16T15:38:24.566Z,14.26
2023-03-16T15:41:32.434Z,14.20
2023-03-16T15:44:41.004Z,13.84
2023-03-16T15:47:44.052Z,14.15
2023-03-16T15:50:56.150Z,13.95
2023-03-16T15:54:01.951Z,14.28
2023-03-16T15:57:05.835Z,15.51
2023-03-16T16:00:38.323Z,16.94
2023-03-16T16:03:41.365Z,17.15
2023-03-16T16:06:44.071Z,18.11
2023-03-16T16:09:57.032Z,18.43
2023-03-16T16:13:01.153Z,19.32
2023-03-16T16:16:03.881Z,19.63
2023-03-16T16:19:06.561Z,20.22
2023-03-16T16:22:13.166Z,20.18
2023-03-16T16:25:16.471Z,20.81
2023-03-16T16:28:22.319Z,21.74
2023-03-16T16:31:26.380Z,21.78
2023-03-16T16:34:28.983Z,22.48
2023-03-16T16:37:31.471Z,22.89
2023-03-16T16:40:38.088Z,23.13
2023-03-16T16:43:44.137Z,23.54
2023-03-16T16:46:49.403Z,23.58
2023-03-16T16:49:52.819Z,23.98
2023-03-16T16:52:57.446Z,24.33
2023-03-16T16:56:00.236Z,24.46
2023-03-16T16:59:18.470Z,25.06
2023-03-16T17:02:33.174Z,25.67
2023-03-16T17:05:36.104Z,25.50
2023-03-16T17:08:39.124Z,26.10
2023-03-16T17:11:43.828Z,26.49
2023-03-16T17:14:46.504Z,27.04
2023-03-16T17:17:50.199Z,27.65
2023-03-16T17:20:52.830Z,29.22
2023-03-16T17:23:56.996Z,29.05
2023-03-16T17:27:01.519Z,30.47
2023-03-16T17:30:11.108Z,30.47
2023-03-16T17:33:16.767Z,30.27
2023-03-16T17:36:21.634Z,31.48
2023-03-16T17:39:29.712Z,31.64
2023-03-16T17:42:33.137Z,31.93
2023-03-16T17:45:37.657Z,32.98
2023-03-16T17:48:40.464Z,34.28
2023-03-16T17:51:44.331Z,36.39
2023-03-16T17:54:48.908Z,37.98
2023-03-16T17:57:54.325Z,36.57
2023-03-16T18:00:58.507Z,38.39
2023-03-16T18:04:02.158Z,37.99
2023-03-16T18:07:05.418Z,38.96
2023-03-16T18:10:15.173Z,40.70
2023-03-16T18:13:31.763Z,40.63
2023-03-16T18:16:34.822Z,41.18
2023-03-16T18:19:37.967Z,40.64
2023-03-16T18:22:41.394Z,41.46
2023-03-16T18:25:45.022Z,42.04
2023-03-16T18:28:48.502Z,42.23
2023-03-16T18:31:54.009Z,42.25
2023-03-16T18:34:58.125Z,43.83
2023-03-16T18:38:01.595Z,44.52
2023-03-16T18:41:17.534Z,44.12
2023-03-16T18:44:23.518Z,43.14
2023-03-16T18:47:31.752Z,42.73
2023-03-16T18:50:34.719Z,43.23
2023-03-16T18:53:38.171Z,43.46
2023-03-16T18:56:41.768Z,42.54
2023-03-16T18:59:45.416Z,43.77
2023-03-16T19:02:58.945Z,43.42
2023-03-16T19:06:02.263Z,43.37
2023-03-16T19:09:13.989Z,43.62
2023-03-16T19:12:24.623Z,45.07
2023-03-16T19:15:30.999Z,43.68
2023-03-16T19:18:42.320Z,43.93
2023-03-16T19:21:46.025Z,44.32
2023-03-16T19:24:52.609Z,44.34
2023-03-16T19:27:56.134Z,44.62
2023-03-16T19:30:59.705Z,45.47
2023-03-16T19:34:02.712Z,45.63
2023-03-16T19:37:06.708Z,46.13
2023-03-16T19:40:12.440Z,47.75
2023-03-16T19:43:20.590Z,48.78
2023-03-16T19:46:28.298Z,48.64
2023-03-16T19:49:31.389Z,47.52
2023-03-16T19:52:34.162Z,48.52
2023-03-16T19:55:38.264Z,48.94
2023-03-16T19:58:43.323Z,50.92
2023-03-16T20:01:47.524Z,48.78
2023-03-16T20:04:50.460Z,49.70
2023-03-16T20:07:55.445Z,50.31
2023-03-16T20:11:06.611Z,49.59
2023-03-16T20:14:19.708Z,50.40
2023-03-16T20:17:28.404Z,50.31
2023-03-16T20:20:37.581Z,50.60
2023-03-16T20:23:40.547Z,51.95
2023-03-16T20:26:45.128Z,51.62
2023-03-16T20:29:51.027Z,51.72
2023-03-16T20:32:53.918Z,52.08
2023-03-16T20:35:57.164Z,53.47
2023-03-16T20:38:59.837Z,53.26
2023-03-16T20:42:02.778Z,51.18
2023-03-16T20:45:24.861Z,52.60
2023-03-16T20:48:28.528Z,52.81
2023-03-16T20:51:32.801Z,53.21
2023-03-16T20:54:35.949Z,53.86
2023-03-16T20:57:40.260Z,54.25
2023-03-16T21:00:44.409Z,54.45
2023-03-16T21:03:54.472Z,54.49
2023-03-16T21:06:57.746Z,54.30
2023-03-16T21:10:00.588Z,55.07
2023-03-16T21:13:04.221Z,55.32
2023-03-16T21:16:11.707Z,55.84
2023-03-16T21:19:21.120Z,56.65
2023-03-16T21:22:29.241Z,56.26
2023-03-16T21:25:44.866Z,56.84
2023-03-16T21:28:55.809Z,57.17
2023-03-16T21:31:58.984Z,57.34
2023-03-16T21:35:01.627Z,57.84
2023-03-16T21:38:13.974Z,57.75
2023-03-16T21:41:17.808Z,56.66
2023-03-16T21:44:20.786Z,57.22
2023-03-16T21:47:26.378Z,57.59
2023-03-16T21:50:36.859Z,57.52
2023-03-16T21:53:39.578Z,58.93
2023-03-16T21:56:42.446Z,58.86
2023-03-16T21:59:45.162Z,59.12
2023-03-16T22:02:49.958Z,59.54
2023-03-16T22:05:53.467Z,58.34
2023-03-16T22:08:59.740Z,59.27
2023-03-16T22:12:02.479Z,58.99
2023-03-16T22:15:05.608Z,59.62
2023-03-16T22:18:20.857Z,59.48
2023-03-16T22:21:35.115Z,59.33
2023-03-16T22:24:38.061Z,59.92
2023-03-16T22:27:41.422Z,59.24
2023-03-16T22:30:44.891Z,59.88
2023-03-16T22:33:50.313Z,60.96
2023-03-16T22:36:53.510Z,60.01
2023-03-16T22:39:58.505Z,60.93
2023-03-16T22:43:04.529Z,60.70
2023-03-16T22:46:11.608Z,60.84
2023-03-16T22:49:24.722Z,60.97
2023-03-16T22:52:30.955Z,60.49
2023-03-16T22:55:38.308Z,61.17
2023-03-16T22:58:51.264Z,60.98
2023-03-16T23:01:53.928Z,61.01
2023-03-16T23:04:57.670Z,60.79
2023-03-16T23:08:02.596Z,60.58
2023-03-16T23:11:05.438Z,60.75
2023-03-16T23:14:17.548Z,61.09
2023-03-16T23:17:22.435Z,61.42
2023-03-16T23:20:28.972Z,61.76
2023-03-16T23:23:32.363Z,62.36
2023-03-16T23:26:34.806Z,61.90
2023-03-16T23:29:37.658Z,61.99
2023-03-16T23:32:41.453Z,61.81
2023-03-16T23:35:46.697Z,61.70
2023-03-16T23:38:50.561Z,61.20
2023-03-16T23:41:53.199Z,62.27
2023-03-16T23:44:56.410Z,61.96
2023-03-16T23:48:01.893Z,63.43
2023-03-16T23:51:05.777Z,62.10
2023-03-16T23:54:24.948Z,62.23
2023-03-16T23:57:27.695Z,62.54
